createdAt,value
2017-09-01T00:00:50.461Z,13.54
2017-09-01T00:03:25.200Z,13.53
2017-09-01T00:05:59.896Z,13.52
2017-09-01T00:08:34.760Z,13.52
2017-09-01T00:11:09.451Z,13.53
2017-09-01T00:13:44.058Z,13.53
2017-09-01T00:16:18.841Z,13.54
2017-09-01T00:18:53.431Z,13.53
2017-09-01T00:21:28.642Z,13.50
2017-09-01T00:24:03.319Z,13.40
2017-09-01T00:26:38.153Z,13.34
2017-09-01T00:29:13.112Z,13.32
2017-09-01T00:31:47.727Z,13.30
2017-09-01T00:34:22.134Z,13.26
2017-09-01T00:36:56.969Z,13.30
2017-09-01T00:39:32.025Z,13.28
2017-09-01T00:42:06.406Z,13.27
2017-09-01T00:44:41.256Z,13.24
2017-09-01T00:47:16.208Z,13.24
2017-09-01T00:49:51.125Z,13.20
2017-09-01T00:52:25.424Z,13.18
2017-09-01T00:55:00.055Z,13.16
2017-09-01T00:57:34.751Z,13.17
2017-09-01T01:00:09.250Z,13.13
2017-09-01T01:02:44.252Z,13.09
2017-09-01T01:05:19.108Z,13.08
2017-09-01T01:07:53.753Z,13.07
2017-09-01T01:10:28.873Z,13.00
2017-09-01T01:13:03.501Z,12.96
2017-09-01T01:15:37.720Z,12.92
2017-09-01T01:18:12.500Z,12.90
2017-09-01T01:20:47.055Z,12.86
2017-09-01T01:23:21.762Z,12.84
2017-09-01T01:25:56.403Z,12.78
2017-09-01T01:28:31.115Z,12.75
2017-09-01T01:31:05.849Z,12.76
2017-09-01T01:33:41.107Z,12.77
2017-09-01T01:36:15.499Z,12.77
2017-09-01T01:38:49.952Z,12.72
2017-09-01T01:41:25.055Z,12.71
2017-09-01T01:43:59.832Z,12.72
2017-09-01T01:46:34.807Z,12.73
2017-09-01T01:49:09.416Z,12.70
2017-09-01T01:51:43.644Z,12.67
2017-09-01T01:54:18.286Z,12.62
2017-09-01T01:56:52.947Z,12.60
2017-09-01T01:59:27.699Z,12.57
2017-09-01T02:02:04.214Z,12.56
2017-09-01T02:04:38.339Z,12.52
2017-09-01T02:07:13.167Z,12.52
2017-09-01T02:09:47.591Z,12.51
2017-09-01T02:12:22.066Z,12.49
2017-09-01T02:14:58.164Z,12.46
2017-09-01T02:17:32.450Z,12.43
2017-09-01T02:20:07.043Z,12.41
2017-09-01T02:22:41.931Z,12.37
2017-09-01T02:25:16.603Z,12.35
2017-09-01T02:27:51.443Z,12.33
2017-09-01T02:30:26.130Z,12.30
2017-09-01T02:33:00.748Z,12.33
2017-09-01T02:35:35.399Z,12.32
2017-09-01T02:38:10.281Z,12.32
2017-09-01T02:40:45.146Z,12.31
2017-09-01T02:43:19.779Z,12.30
2017-09-01T02:45:54.697Z,12.30
2017-09-01T02:48:29.116Z,12.27
2017-09-01T02:51:03.935Z,12.27
2017-09-01T02:53:38.663Z,12.25
2017-09-01T02:56:13.963Z,12.19
2017-09-01T02:58:48.223Z,12.18
2017-09-01T03:01:22.834Z,12.12
2017-09-01T03:03:57.637Z,12.08
2017-09-01T03:06:31.730Z,12.07
2017-09-01T03:09:06.529Z,12.05
2017-09-01T03:11:41.187Z,12.03
2017-09-01T03:14:15.271Z,12.02
2017-09-01T03:16:49.868Z,11.98
2017-09-01T03:19:24.604Z,11.96
2017-09-01T03:22:00.028Z,11.93
2017-09-01T03:24:34.507Z,11.89
2017-09-01T03:27:09.068Z,11.71
2017-09-01T03:29:43.756Z,11.62
2017-09-01T03:32:18.400Z,11.61
2017-09-01T03:34:53.575Z,11.64
2017-09-01T03:37:28.633Z,11.58
2017-09-01T03:40:03.302Z,11.64
2017-09-01T03:42:37.888Z,11.63
2017-09-01T03:45:12.663Z,11.65
2017-09-01T03:47:47.667Z,11.66
2017-09-01T03:50:22.048Z,11.61
2017-09-01T03:52:56.623Z,11.54
2017-09-01T03:55:31.663Z,11.55
2017-09-01T03:58:06.502Z,11.58
2017-09-01T04:00:41.236Z,11.58
2017-09-01T04:03:15.972Z,11.54
2017-09-01T04:05:50.775Z,11.54
2017-09-01T04:08:25.529Z,11.48
2017-09-01T04:11:00.075Z,11.44
2017-09-01T04:13:34.935Z,11.51
2017-09-01T04:16:09.786Z,11.62
2017-09-01T04:18:45.655Z,11.74
2017-09-01T04:21:20.630Z,11.82
2017-09-01T04:23:55.535Z,11.84
2017-09-01T04:26:30.701Z,11.87
2017-09-01T04:29:05.030Z,11.94
2017-09-01T04:31:39.917Z,11.96
2017-09-01T04:34:15.478Z,11.97
2017-09-01T04:36:50.103Z,12.04
2017-09-01T04:39:24.750Z,12.04
2017-09-01T04:41:59.254Z,12.01
2017-09-01T04:44:34.119Z,12.05
2017-09-01T04:47:09.208Z,12.12
2017-09-01T04:49:44.808Z,12.09
2017-09-01T04:52:18.971Z,12.12
2017-09-01T04:54:53.843Z,12.22
2017-09-01T04:57:28.551Z,12.20
2017-09-01T05:00:02.859Z,12.06
2017-09-01T05:02:38.070Z,12.00
2017-09-01T05:05:12.503Z,12.02
2017-09-01T05:07:47.116Z,11.90
2017-09-01T05:10:21.626Z,11.79
2017-09-01T05:12:56.619Z,11.71
2017-09-01T05:15:31.471Z,11.76
2017-09-01T05:18:06.196Z,11.83
2017-09-01T05:20:40.940Z,11.83
2017-09-01T05:23:15.850Z,11.84
2017-09-01T05:25:50.667Z,12.16
2017-09-01T05:28:26.035Z,12.09
2017-09-01T05:31:01.854Z,12.04
2017-09-01T05:33:36.371Z,12.03
2017-09-01T05:36:10.871Z,12.11
2017-09-01T05:38:45.556Z,12.23
2017-09-01T05:41:20.510Z,12.32
2017-09-01T05:43:55.159Z,12.39
2017-09-01T05:46:31.170Z,12.46
2017-09-01T05:49:05.840Z,12.54
2017-09-01T05:51:40.940Z,12.56
2017-09-01T05:54:15.867Z,12.59
2017-09-01T05:56:51.294Z,12.65
2017-09-01T05:59:26.508Z,12.76
2017-09-01T06:02:01.235Z,12.90
2017-09-01T06:04:36.050Z,13.09
2017-09-01T06:07:11.087Z,13.23
2017-09-01T06:09:45.795Z,13.35
2017-09-01T06:12:21.440Z,13.44
2017-09-01T06:14:56.183Z,13.49
2017-09-01T06:17:30.894Z,13.53
2017-09-01T06:20:05.584Z,13.63
2017-09-01T06:22:40.062Z,13.73
2017-09-01T06:25:14.796Z,13.91
2017-09-01T06:27:49.747Z,14.04
2017-09-01T06:30:24.436Z,14.01
2017-09-01T06:32:59.376Z,14.14
2017-09-01T06:35:34.274Z,14.30
2017-09-01T06:38:08.844Z,14.39
2017-09-01T06:40:43.831Z,14.46
2017-09-01T06:43:18.640Z,14.59
2017-09-01T06:45:54.079Z,14.81
2017-09-01T06:48:28.788Z,14.98
2017-09-01T06:51:03.608Z,15.17
2017-09-01T06:53:38.851Z,15.38
2017-09-01T06:56:13.706Z,15.54
2017-09-01T06:58:49.010Z,15.73
2017-09-01T07:01:23.763Z,15.95
2017-09-01T07:03:58.556Z,16.16
2017-09-01T07:06:33.066Z,16.39
2017-09-01T07:09:08.092Z,16.60
2017-09-01T07:11:42.651Z,16.77
2017-09-01T07:14:17.636Z,16.88
2017-09-01T07:16:53.230Z,17.04
2017-09-01T07:19:28.123Z,17.14
2017-09-01T07:22:02.798Z,17.17
2017-09-01T07:24:37.944Z,17.41
2017-09-01T07:27:12.775Z,17.61
2017-09-01T07:29:47.654Z,17.68
2017-09-01T07:32:22.784Z,17.91
2017-09-01T07:34:57.714Z,18.07
2017-09-01T07:37:32.878Z,18.23
2017-09-01T07:40:08.390Z,18.42
2017-09-01T07:42:43.095Z,18.57
2017-09-01T07:45:18.275Z,18.77
2017-09-01T07:47:53.180Z,19.10
2017-09-01T07:50:28.219Z,19.40
2017-09-01T07:53:03.284Z,19.52
2017-09-01T07:55:38.287Z,19.66
2017-09-01T07:58:13.016Z,19.83
2017-09-01T08:00:47.887Z,19.82
2017-09-01T08:03:23.367Z,19.78
2017-09-01T08:05:58.475Z,19.70
2017-09-01T08:08:33.346Z,19.99
2017-09-01T08:11:08.198Z,20.31
2017-09-01T08:13:43.030Z,20.72
2017-09-01T08:16:17.663Z,20.93
2017-09-01T08:18:52.675Z,20.92
2017-09-01T08:21:27.483Z,21.18
2017-09-01T08:24:02.228Z,21.47
2017-09-01T08:26:37.146Z,21.72
2017-09-01T08:29:12.017Z,21.93
2017-09-01T08:31:46.919Z,22.09
2017-09-01T08:34:21.756Z,22.19
2017-09-01T08:36:56.474Z,22.26
2017-09-01T08:39:31.454Z,22.50
2017-09-01T08:42:06.397Z,22.57
2017-09-01T08:44:41.451Z,22.69
2017-09-01T08:47:17.347Z,22.95
2017-09-01T08:49:51.960Z,22.90
2017-09-01T08:52:26.690Z,22.42
2017-09-01T08:55:01.754Z,22.24
2017-09-01T08:57:37.060Z,22.24
2017-09-01T09:00:12.671Z,22.18
2017-09-01T09:02:47.421Z,22.24
2017-09-01T09:05:22.137Z,22.35
2017-09-01T09:07:56.970Z,22.36
2017-09-01T09:10:31.517Z,22.28
2017-09-01T09:13:06.264Z,22.15
2017-09-01T09:15:41.084Z,22.19
2017-09-01T09:18:16.047Z,22.46
2017-09-01T09:20:50.975Z,22.66
2017-09-01T09:23:26.743Z,22.64
2017-09-01T09:26:01.484Z,22.81
2017-09-01T09:28:36.205Z,22.99
2017-09-01T09:31:10.934Z,23.20
2017-09-01T09:33:45.963Z,23.47
2017-09-01T09:36:20.717Z,23.03
2017-09-01T09:38:55.400Z,22.90
2017-09-01T09:41:30.355Z,23.05
2017-09-01T09:44:05.068Z,23.20
2017-09-01T09:46:39.694Z,23.44
2017-09-01T09:49:14.606Z,23.54
2017-09-01T09:51:49.348Z,23.78
2017-09-01T09:54:24.958Z,23.98
2017-09-01T09:57:00.963Z,24.18
2017-09-01T09:59:36.862Z,24.54
2017-09-01T10:02:11.356Z,24.81
2017-09-01T10:04:47.499Z,25.08
2017-09-01T10:07:22.115Z,24.68
2017-09-01T10:09:57.012Z,24.55
2017-09-01T10:12:31.771Z,24.74
2017-09-01T10:15:07.194Z,24.79
2017-09-01T10:17:42.346Z,24.58
2017-09-01T10:20:16.987Z,24.39
2017-09-01T10:22:52.299Z,24.42
2017-09-01T10:25:26.746Z,24.61
2017-09-01T10:28:00.813Z,24.51
2017-09-01T10:30:35.944Z,24.25
2017-09-01T10:33:10.779Z,24.44
2017-09-01T10:35:45.579Z,24.58
2017-09-01T10:38:20.407Z,24.74
2017-09-01T10:40:55.050Z,24.95
2017-09-01T10:43:29.840Z,25.08
2017-09-01T10:46:04.516Z,24.99
2017-09-01T10:48:50.664Z,24.96
2017-09-01T10:54:37.232Z,25.54
2017-09-01T10:57:23.231Z,25.22
2017-09-01T10:59:57.963Z,24.80
2017-09-01T11:02:33.483Z,24.52
2017-09-01T11:05:08.248Z,24.32
2017-09-01T11:07:43.091Z,24.22
2017-09-01T11:10:17.828Z,24.27
2017-09-01T11:12:52.538Z,23.90
2017-09-01T11:15:27.342Z,24.04
2017-09-01T11:18:02.080Z,23.98
2017-09-01T11:23:55.463Z,23.66
2017-09-01T11:26:30.306Z,23.53
2017-09-01T11:29:05.438Z,23.59
2017-09-01T11:31:40.139Z,23.39
2017-09-01T11:34:14.904Z,23.47
2017-09-01T11:36:49.723Z,23.81
2017-09-01T11:39:24.474Z,24.10
2017-09-01T11:41:59.283Z,24.41
2017-09-01T11:44:34.315Z,24.37
2017-09-01T11:47:09.482Z,24.15
2017-09-01T11:49:44.272Z,24.41
2017-09-01T11:52:19.188Z,24.68
2017-09-01T11:54:54.223Z,24.84
2017-09-01T11:57:29.505Z,25.17
2017-09-01T12:00:04.140Z,25.05
2017-09-01T12:02:40.092Z,25.32
2017-09-01T12:05:14.687Z,25.52
2017-09-01T12:07:50.495Z,25.80
2017-09-01T12:10:25.404Z,25.66
2017-09-01T12:13:01.068Z,25.82
2017-09-01T12:15:35.679Z,25.88
2017-09-01T12:18:11.395Z,26.01
2017-09-01T12:20:46.392Z,26.09
2017-09-01T12:23:20.878Z,25.98
2017-09-01T12:25:55.568Z,25.95
2017-09-01T12:28:30.395Z,25.68
2017-09-01T12:31:05.247Z,25.65
2017-09-01T12:33:39.953Z,25.50
2017-09-01T12:36:14.521Z,25.43
2017-09-01T12:38:49.234Z,25.16
2017-09-01T12:41:23.591Z,25.23
2017-09-01T12:43:58.511Z,25.22
2017-09-01T12:46:33.195Z,25.28
2017-09-01T12:49:07.952Z,25.27
2017-09-01T12:51:42.635Z,25.00
2017-09-01T12:54:17.404Z,24.68
2017-09-01T12:56:53.292Z,24.67
2017-09-01T12:59:27.979Z,24.40
2017-09-01T13:02:02.651Z,24.41
2017-09-01T13:04:37.272Z,24.21
2017-09-01T13:07:11.947Z,24.20
2017-09-01T13:09:46.760Z,24.29
2017-09-01T13:12:21.416Z,24.38
2017-09-01T13:14:56.140Z,24.39
2017-09-01T13:17:30.972Z,24.42
2017-09-01T13:20:05.756Z,24.46
2017-09-01T13:22:40.243Z,24.31
2017-09-01T13:25:15.004Z,24.40
2017-09-01T13:27:49.712Z,24.42
2017-09-01T13:30:24.355Z,24.33
2017-09-01T13:32:59.052Z,24.18
2017-09-01T13:35:33.995Z,23.93
2017-09-01T13:38:08.803Z,23.69
2017-09-01T13:40:43.531Z,23.57
2017-09-01T13:43:18.256Z,23.37
2017-09-01T13:45:53.116Z,23.16
2017-09-01T13:48:27.945Z,23.10
2017-09-01T13:51:02.571Z,23.09
2017-09-01T13:53:36.996Z,23.17
2017-09-01T13:56:11.924Z,23.32
2017-09-01T13:58:46.620Z,23.51
2017-09-01T14:01:21.290Z,23.59
2017-09-01T14:03:56.019Z,23.39
2017-09-01T14:06:30.739Z,23.37
2017-09-01T14:09:04.843Z,23.52
2017-09-01T14:11:40.191Z,23.38
2017-09-01T14:14:14.950Z,23.35
2017-09-01T14:16:49.970Z,23.30
2017-09-01T14:19:25.579Z,23.39
2017-09-01T14:22:00.431Z,23.46
2017-09-01T14:24:35.148Z,23.56
2017-09-01T14:27:10.037Z,23.63
2017-09-01T14:29:44.676Z,23.59
2017-09-01T14:32:19.347Z,23.65
2017-09-01T14:34:54.216Z,23.68
2017-09-01T14:37:29.536Z,23.56
2017-09-01T14:40:04.299Z,23.70
2017-09-01T14:42:39.332Z,23.82
2017-09-01T14:45:14.815Z,23.89
2017-09-01T14:47:49.547Z,24.21
2017-09-01T14:50:24.365Z,24.34
2017-09-01T14:52:59.241Z,24.22
2017-09-01T14:55:34.092Z,24.21
2017-09-01T14:58:08.813Z,23.90
2017-09-01T15:00:43.520Z,23.52
2017-09-01T15:03:18.258Z,23.48
2017-09-01T15:05:53.075Z,23.38
2017-09-01T15:08:27.836Z,23.44
2017-09-01T15:11:03.441Z,23.39
2017-09-01T15:13:38.283Z,23.43
2017-09-01T15:16:13.078Z,23.51
2017-09-01T15:18:47.810Z,23.59
2017-09-01T15:21:25.534Z,23.43
2017-09-01T15:24:00.576Z,22.99
2017-09-01T15:26:35.311Z,22.82
2017-09-01T15:29:10.380Z,22.81
2017-09-01T15:31:45.345Z,22.75
2017-09-01T15:34:20.216Z,22.88
2017-09-01T15:36:55.267Z,23.10
2017-09-01T15:39:30.196Z,23.04
2017-09-01T15:42:05.100Z,23.26
2017-09-01T15:44:39.819Z,23.52
2017-09-01T15:47:14.685Z,23.39
2017-09-01T15:49:49.536Z,23.14
2017-09-01T15:52:24.335Z,23.17
2017-09-01T15:54:59.067Z,23.14
2017-09-01T15:57:33.891Z,23.17
2017-09-01T16:00:08.284Z,22.98
2017-09-01T16:02:43.151Z,22.80
2017-09-01T16:05:17.958Z,22.62
2017-09-01T16:07:52.851Z,22.61
2017-09-01T16:10:27.643Z,22.58
2017-09-01T16:13:02.386Z,22.61
2017-09-01T16:15:37.311Z,22.70
2017-09-01T16:18:12.210Z,22.84
2017-09-01T16:20:46.999Z,22.98
2017-09-01T16:23:21.783Z,23.05
2017-09-01T16:25:56.448Z,22.91
2017-09-01T16:28:31.238Z,22.58
2017-09-01T16:31:06.120Z,22.56
2017-09-01T16:33:40.933Z,22.66
2017-09-01T16:36:15.875Z,22.59
2017-09-01T16:38:50.514Z,22.68
2017-09-01T16:41:25.354Z,22.78
2017-09-01T16:44:00.059Z,22.64
2017-09-01T16:46:34.803Z,22.63
2017-09-01T16:49:09.624Z,22.68
2017-09-01T16:51:44.529Z,22.72
2017-09-01T16:54:19.223Z,22.72
2017-09-01T16:56:53.976Z,22.65
2017-09-01T16:59:29.044Z,22.72
2017-09-01T17:02:03.874Z,22.72
2017-09-01T17:04:38.696Z,22.76
2017-09-01T17:07:13.667Z,22.81
2017-09-01T17:09:48.543Z,22.65
2017-09-01T17:12:23.415Z,22.58
2017-09-01T17:14:58.241Z,22.58
2017-09-01T17:17:32.974Z,22.35
2017-09-01T17:20:07.844Z,22.25
2017-09-01T17:22:42.706Z,22.28
2017-09-01T17:25:17.451Z,22.34
2017-09-01T17:27:52.300Z,22.27
2017-09-01T17:30:26.996Z,22.18
2017-09-01T17:33:03.795Z,22.16
2017-09-01T17:35:38.479Z,22.17
2017-09-01T17:38:13.435Z,22.17
2017-09-01T17:40:48.285Z,22.15
2017-09-01T17:43:23.096Z,22.14
2017-09-01T17:45:57.990Z,22.11
2017-09-01T17:48:32.894Z,22.05
2017-09-01T17:51:07.727Z,22.02
2017-09-01T17:53:42.756Z,22.00
2017-09-01T17:56:17.966Z,21.97
2017-09-01T17:58:53.054Z,21.93
2017-09-01T18:01:27.813Z,21.88
2017-09-01T18:04:02.491Z,21.89
2017-09-01T18:06:37.179Z,21.92
2017-09-01T18:09:12.123Z,21.89
2017-09-01T18:11:46.740Z,21.84
2017-09-01T18:14:21.939Z,21.78
2017-09-01T18:16:57.311Z,21.73
2017-09-01T18:19:31.955Z,21.67
2017-09-01T18:22:06.752Z,21.67
2017-09-01T18:24:41.367Z,21.57
2017-09-01T18:27:16.316Z,21.57
2017-09-01T18:29:51.043Z,21.54
2017-09-01T18:32:25.680Z,21.54
2017-09-01T18:35:00.301Z,21.54
2017-09-01T18:37:35.067Z,21.52
2017-09-01T18:40:09.692Z,21.44
2017-09-01T18:42:44.239Z,21.37
2017-09-01T18:45:18.852Z,21.23
2017-09-01T18:47:53.668Z,21.08
2017-09-01T18:50:28.523Z,20.98
2017-09-01T18:53:03.068Z,21.02
2017-09-01T18:55:37.888Z,21.04
2017-09-01T18:58:12.612Z,21.03
2017-09-01T19:00:47.772Z,20.98
2017-09-01T19:03:22.523Z,20.90
2017-09-01T19:05:57.478Z,20.87
2017-09-01T19:08:32.194Z,20.85
2017-09-01T19:11:06.927Z,20.63
2017-09-01T19:13:41.819Z,20.47
2017-09-01T19:16:16.540Z,20.44
2017-09-01T19:18:51.330Z,20.32
2017-09-01T19:21:26.147Z,20.27
2017-09-01T19:24:01.187Z,20.22
2017-09-01T19:26:36.137Z,20.19
2017-09-01T19:29:10.904Z,20.16
2017-09-01T19:31:45.712Z,20.15
2017-09-01T19:34:20.754Z,20.14
2017-09-01T19:36:55.872Z,20.09
2017-09-01T19:39:30.791Z,20.07
2017-09-01T19:42:05.752Z,19.99
2017-09-01T19:44:40.697Z,19.98
2017-09-01T19:47:15.612Z,19.98
2017-09-01T19:49:50.080Z,19.91
2017-09-01T19:52:24.710Z,19.89
2017-09-01T19:54:59.431Z,19.92
2017-09-01T19:57:34.143Z,19.85
2017-09-01T20:00:08.839Z,19.77
2017-09-01T20:02:43.656Z,19.69
2017-09-01T20:05:18.546Z,19.58
2017-09-01T20:07:53.012Z,19.41
2017-09-01T20:10:29.074Z,19.30
2017-09-01T20:13:03.435Z,19.06
2017-09-01T20:15:38.344Z,19.03
2017-09-01T20:18:12.955Z,19.21
2017-09-01T20:20:47.804Z,19.30
2017-09-01T20:23:22.526Z,19.41
2017-09-01T20:25:57.460Z,19.47
2017-09-01T20:28:32.367Z,19.28
2017-09-01T20:31:07.019Z,19.38
2017-09-01T20:33:41.942Z,19.46
2017-09-01T20:36:16.775Z,19.47
2017-09-01T20:38:51.686Z,19.42
2017-09-01T20:41:26.647Z,19.36
2017-09-01T20:44:01.413Z,19.44
2017-09-01T20:46:36.379Z,19.42
2017-09-01T20:49:11.256Z,19.46
2017-09-01T20:51:46.972Z,19.40
2017-09-01T20:54:22.562Z,19.30
2017-09-01T20:56:57.363Z,19.38
2017-09-01T20:59:32.129Z,19.47
2017-09-01T21:02:07.777Z,19.52
2017-09-01T21:04:42.359Z,19.51
2017-09-01T21:07:17.155Z,19.56
2017-09-01T21:09:51.944Z,19.61
2017-09-01T21:12:26.369Z,19.61
2017-09-01T21:15:01.582Z,19.59
2017-09-01T21:17:36.376Z,19.56
2017-09-01T21:20:11.552Z,19.58
2017-09-01T21:22:46.328Z,19.58
2017-09-01T21:25:21.162Z,19.52
2017-09-01T21:27:55.858Z,19.55
2017-09-01T21:30:30.715Z,19.50
2017-09-01T21:33:05.671Z,19.61
2017-09-01T21:35:40.852Z,19.63
2017-09-01T21:38:15.771Z,19.57
2017-09-01T21:40:50.728Z,19.48
2017-09-01T21:43:25.546Z,19.51
2017-09-01T21:46:00.267Z,19.48
2017-09-01T21:48:35.011Z,19.45
2017-09-01T21:51:10.059Z,19.42
2017-09-01T21:53:44.932Z,19.43
2017-09-01T21:56:19.804Z,19.41
2017-09-01T21:58:54.756Z,19.44
2017-09-01T22:01:32.876Z,19.50
2017-09-01T22:04:07.888Z,19.49
2017-09-01T22:06:42.634Z,19.52
2017-09-01T22:09:17.227Z,19.51
2017-09-01T22:11:51.871Z,19.50
2017-09-01T22:14:26.493Z,19.50
2017-09-01T22:17:01.380Z,19.53
2017-09-01T22:19:35.870Z,19.46
2017-09-01T22:22:10.583Z,19.47
2017-09-01T22:24:45.216Z,19.42
2017-09-01T22:27:19.919Z,19.37
2017-09-01T22:29:54.732Z,19.38
2017-09-01T22:32:29.347Z,19.38
2017-09-01T22:35:04.040Z,19.40
2017-09-01T22:37:38.934Z,19.41
2017-09-01T22:40:13.684Z,19.41
2017-09-01T22:42:48.388Z,19.43
2017-09-01T22:45:23.026Z,19.43
2017-09-01T22:47:57.751Z,19.38
2017-09-01T22:50:32.387Z,19.40
2017-09-01T22:53:07.102Z,19.40
2017-09-01T22:55:42.043Z,19.41
2017-09-01T22:58:17.044Z,19.38
2017-09-01T23:00:51.847Z,19.35
2017-09-01T23:03:26.719Z,19.30
2017-09-01T23:06:01.422Z,19.32
2017-09-01T23:08:35.954Z,19.28
2017-09-01T23:11:10.716Z,19.25
2017-09-01T23:13:45.443Z,19.21
2017-09-01T23:16:20.243Z,19.15
2017-09-01T23:18:55.223Z,19.18
2017-09-01T23:21:29.823Z,19.18
2017-09-01T23:24:04.503Z,19.09
2017-09-01T23:26:39.331Z,19.08
2017-09-01T23:29:14.156Z,19.05
2017-09-01T23:31:48.862Z,19.07
2017-09-01T23:34:23.535Z,19.02
2017-09-01T23:36:58.060Z,19.02
2017-09-01T23:39:32.747Z,19.03
2017-09-01T23:42:07.507Z,19.00
2017-09-01T23:44:42.246Z,19.02
2017-09-01T23:47:16.939Z,18.98
2017-09-01T23:49:51.663Z,18.90
2017-09-01T23:52:26.368Z,18.80
2017-09-01T23:55:01.042Z,18.71
2017-09-01T23:57:35.775Z,18.68
